createdAt,value
2023-04-04T00:00:57.002Z,102955.69
2023-04-04T00:03:23.590Z,102954.97
2023-04-04T00:05:51.530Z,102955.47
2023-04-04T00:08:18.130Z,102949.38
2023-04-04T00:10:44.738Z,102967.88
2023-04-04T00:13:11.432Z,102967.38
2023-04-04T00:15:37.930Z,102966.81
2023-04-04T00:18:04.778Z,102963.56
2023-04-04T00:20:31.653Z,102964.25
2023-04-04T00:22:58.959Z,102958.13
2023-04-04T00:25:25.572Z,102958.81
2023-04-04T00:27:52.042Z,102966.94
2023-04-04T00:30:18.581Z,102953.34
2023-04-04T00:32:45.676Z,102969.00
2023-04-04T00:35:12.761Z,102975.09
2023-04-04T00:37:39.267Z,102966.44
2023-04-04T00:40:06.590Z,102970.34
2023-04-04T00:42:34.080Z,102962.50
2023-04-04T00:45:00.934Z,102963.03
2023-04-04T00:47:31.156Z,102959.97
2023-04-04T00:49:58.014Z,102960.13
2023-04-04T00:52:24.749Z,102961.31
2023-04-04T00:54:51.706Z,102952.44
2023-04-04T00:57:19.330Z,102958.41
2023-04-04T00:59:46.149Z,102963.00
2023-04-04T01:02:12.868Z,102970.44
2023-04-04T01:04:39.601Z,102966.19
2023-04-04T01:07:06.879Z,102960.06
2023-04-04T01:09:33.813Z,102955.44
2023-04-04T01:12:02.394Z,102955.78
2023-04-04T01:14:31.167Z,102942.91
2023-04-04T01:16:59.215Z,102945.63
2023-04-04T01:19:36.753Z,102942.72
2023-04-04T01:22:11.471Z,102927.09
2023-04-04T01:24:41.989Z,102932.53
2023-04-04T01:27:08.827Z,102944.06
2023-04-04T01:29:41.378Z,102939.66
2023-04-04T01:32:14.723Z,102945.69
2023-04-04T01:34:41.488Z,102937.53
2023-04-04T01:37:19.081Z,102939.75
2023-04-04T01:39:52.599Z,102948.69
2023-04-04T01:42:20.290Z,102937.84
2023-04-04T01:44:48.322Z,102938.31
2023-04-04T01:47:14.792Z,102935.22
2023-04-04T01:49:42.455Z,102940.66
2023-04-04T01:52:09.514Z,102937.59
2023-04-04T01:54:37.204Z,102927.75
2023-04-04T01:57:03.852Z,102921.28
2023-04-04T01:59:30.602Z,102926.00
2023-04-04T02:01:57.659Z,102931.94
2023-04-04T02:04:25.022Z,102943.78
2023-04-04T02:06:52.630Z,102936.78
2023-04-04T02:09:19.320Z,102933.25
2023-04-04T02:11:46.624Z,102931.53
2023-04-04T02:14:13.235Z,102926.06
2023-04-04T02:16:39.785Z,102928.78
2023-04-04T02:19:06.355Z,102944.66
2023-04-04T02:21:36.049Z,102939.56
2023-04-04T02:24:02.533Z,102946.31
2023-04-04T02:26:29.008Z,102950.03
2023-04-04T02:28:55.589Z,102960.88
2023-04-04T02:31:22.888Z,102963.91
2023-04-04T02:33:49.461Z,102964.38
2023-04-04T02:36:18.886Z,102963.16
2023-04-04T02:38:47.590Z,102959.75
2023-04-04T02:41:14.568Z,102954.63
2023-04-04T02:43:41.404Z,102949.38
2023-04-04T02:46:20.466Z,102945.97
2023-04-04T02:48:49.421Z,102936.78
2023-04-04T02:51:16.048Z,102935.59
2023-04-04T02:53:42.616Z,102941.66
2023-04-04T02:56:19.773Z,102929.75
2023-04-04T02:58:46.544Z,102936.56
2023-04-04T03:01:13.283Z,102943.34
2023-04-04T03:03:39.857Z,102937.78
2023-04-04T03:06:06.659Z,102937.91
2023-04-04T03:08:34.958Z,102941.97
2023-04-04T03:11:02.664Z,102938.22
2023-04-04T03:13:29.227Z,102942.25
2023-04-04T03:16:02.664Z,102939.19
2023-04-04T03:18:31.536Z,102933.91
2023-04-04T03:20:58.405Z,102941.38
2023-04-04T03:23:24.964Z,102936.41
2023-04-04T03:25:51.662Z,102939.25
2023-04-04T03:28:18.176Z,102934.47
2023-04-04T03:30:44.737Z,102931.75
2023-04-04T03:33:12.199Z,102924.78
2023-04-04T03:35:39.669Z,102925.09
2023-04-04T03:38:06.861Z,102928.13
2023-04-04T03:40:33.506Z,102922.28
2023-04-04T03:43:02.262Z,102918.91
2023-04-04T03:45:32.608Z,102916.34
2023-04-04T03:47:59.429Z,102912.94
2023-04-04T03:50:27.498Z,102903.56
2023-04-04T03:52:54.251Z,102905.28
2023-04-04T03:55:20.755Z,102899.16
2023-04-04T03:57:47.798Z,102905.59
2023-04-04T04:00:16.475Z,102908.91
2023-04-04T04:02:44.660Z,102909.63
2023-04-04T04:05:11.753Z,102918.00
2023-04-04T04:07:38.432Z,102914.63
2023-04-04T04:10:05.566Z,102918.63
2023-04-04T04:12:32.736Z,102917.78
2023-04-04T04:14:59.344Z,102912.69
2023-04-04T04:17:25.891Z,102913.00
2023-04-04T04:19:53.824Z,102917.69
2023-04-04T04:22:20.373Z,102917.16
2023-04-04T04:24:46.940Z,102907.19
2023-04-04T04:27:13.419Z,102913.75
2023-04-04T04:29:40.477Z,102911.31
2023-04-04T04:32:07.592Z,102911.19
2023-04-04T04:34:39.256Z,102915.91
2023-04-04T04:37:06.178Z,102914.22
2023-04-04T04:39:46.422Z,102907.25
2023-04-04T04:42:22.955Z,102908.38
2023-04-04T04:44:55.390Z,102908.69
2023-04-04T04:47:22.937Z,102910.84
2023-04-04T04:49:49.882Z,102914.56
2023-04-04T04:52:21.728Z,102918.72
2023-04-04T04:54:49.338Z,102928.25
2023-04-04T04:57:15.982Z,102927.53
2023-04-04T04:59:44.053Z,102930.38
2023-04-04T05:02:12.677Z,102937.25
2023-04-04T05:04:45.190Z,102931.69
2023-04-04T05:07:14.165Z,102936.41
2023-04-04T05:09:43.646Z,102937.56
2023-04-04T05:12:11.029Z,102938.00
2023-04-04T05:14:41.883Z,102931.19
2023-04-04T05:17:08.444Z,102939.00
2023-04-04T05:19:35.744Z,102937.59
2023-04-04T05:22:03.042Z,102931.19
2023-04-04T05:24:37.985Z,102933.16
2023-04-04T05:27:05.132Z,102930.47
2023-04-04T05:29:38.322Z,102934.88
2023-04-04T05:32:05.271Z,102930.47
2023-04-04T05:34:34.416Z,102942.56
2023-04-04T05:37:06.496Z,102938.19
2023-04-04T05:39:34.489Z,102944.91
2023-04-04T05:42:05.461Z,102949.25
2023-04-04T05:44:37.143Z,102944.91
2023-04-04T05:47:05.273Z,102948.59
2023-04-04T05:49:31.832Z,102953.16
2023-04-04T05:52:01.198Z,102954.00
2023-04-04T05:54:29.253Z,102946.03
2023-04-04T05:56:57.526Z,102945.88
2023-04-04T05:59:37.361Z,102952.03
2023-04-04T06:02:06.258Z,102950.31
2023-04-04T06:04:33.635Z,102948.59
2023-04-04T06:07:02.505Z,102943.50
2023-04-04T06:09:29.146Z,102958.13
2023-04-04T06:11:56.295Z,102953.41
2023-04-04T06:14:22.871Z,102955.53
2023-04-04T06:16:50.673Z,102944.41
2023-04-04T06:19:17.194Z,102955.94
2023-04-04T06:21:43.752Z,102950.22
2023-04-04T06:24:12.342Z,102948.22
2023-04-04T06:26:39.218Z,102957.44
2023-04-04T06:29:06.158Z,102965.13
2023-04-04T06:31:36.806Z,102969.09
2023-04-04T06:34:14.862Z,102962.50
2023-04-04T06:36:51.780Z,102966.78
2023-04-04T06:39:19.007Z,102968.47
2023-04-04T06:41:48.037Z,102964.16
2023-04-04T06:44:14.792Z,102970.97
2023-04-04T06:46:41.683Z,102973.56
2023-04-04T06:49:08.272Z,102974.41
2023-04-04T06:51:34.972Z,102974.41
2023-04-04T06:54:01.733Z,102981.59
2023-04-04T06:56:28.392Z,102963.50
2023-04-04T06:58:54.937Z,102977.31
2023-04-04T07:01:21.616Z,102974.28
2023-04-04T07:03:49.228Z,102972.25
2023-04-04T07:06:15.790Z,102984.69
2023-04-04T07:08:42.343Z,102988.78
2023-04-04T07:11:09.001Z,102986.63
2023-04-04T07:13:35.566Z,102977.47
2023-04-04T07:16:02.613Z,102982.28
2023-04-04T07:18:29.132Z,102983.53
2023-04-04T07:20:55.775Z,102979.66
2023-04-04T07:23:22.337Z,102982.78
2023-04-04T07:25:49.085Z,102972.94
2023-04-04T07:28:15.787Z,102968.28
2023-04-04T07:30:42.644Z,102966.97
2023-04-04T07:33:09.472Z,102965.66
2023-04-04T07:35:36.354Z,102968.44
2023-04-04T07:38:04.231Z,102972.41
2023-04-04T07:40:31.733Z,102970.91
2023-04-04T07:42:58.213Z,102967.88
2023-04-04T07:45:24.761Z,102964.56
2023-04-04T07:47:51.523Z,102968.47
2023-04-04T07:50:19.129Z,102961.59
2023-04-04T07:52:54.503Z,102969.94
2023-04-04T07:55:21.377Z,102965.75
2023-04-04T07:57:48.054Z,102968.28
2023-04-04T08:00:15.134Z,102971.38
2023-04-04T08:02:44.690Z,102969.06
2023-04-04T08:05:11.384Z,102974.00
2023-04-04T08:07:37.931Z,102972.63
2023-04-04T08:10:04.902Z,102977.44
2023-04-04T08:12:31.448Z,102977.97
2023-04-04T08:14:57.967Z,102968.66
2023-04-04T08:17:24.688Z,102973.28
2023-04-04T08:19:51.279Z,102969.56
2023-04-04T08:22:18.341Z,102972.66
2023-04-04T08:24:44.970Z,102965.03
2023-04-04T08:27:11.584Z,102969.13
2023-04-04T08:29:38.133Z,102968.81
2023-04-04T08:32:05.100Z,102966.47
2023-04-04T08:34:32.116Z,102963.44
2023-04-04T08:36:59.829Z,102960.22
2023-04-04T08:39:27.217Z,102955.13
2023-04-04T08:42:05.577Z,102958.06
2023-04-04T08:44:34.064Z,102948.91
2023-04-04T08:47:03.349Z,102955.53
2023-04-04T08:49:38.245Z,102948.91
2023-04-04T08:52:06.375Z,102953.72
2023-04-04T08:54:34.419Z,102957.94
2023-04-04T08:57:01.666Z,102949.47
2023-04-04T08:59:28.300Z,102952.69
2023-04-04T09:02:11.696Z,102957.84
2023-04-04T09:04:39.944Z,102957.00
2023-04-04T09:07:07.002Z,102952.06
2023-04-04T09:09:34.220Z,102962.25
2023-04-04T09:12:02.319Z,102956.16
2023-04-04T09:14:30.841Z,102953.44
2023-04-04T09:16:57.916Z,102943.94
2023-04-04T09:19:26.272Z,102955.00
2023-04-04T09:21:53.117Z,102960.59
2023-04-04T09:24:19.672Z,102953.81
2023-04-04T09:26:51.571Z,102947.34
2023-04-04T09:29:21.754Z,102953.81
2023-04-04T09:31:52.189Z,102944.78
2023-04-04T09:34:20.185Z,102947.16
2023-04-04T09:36:47.679Z,102943.44
2023-04-04T09:39:16.633Z,102950.06
2023-04-04T09:41:45.371Z,102937.13
2023-04-04T09:44:13.167Z,102934.75
2023-04-04T09:46:40.720Z,102949.38
2023-04-04T09:49:13.950Z,102938.84
2023-04-04T09:51:42.486Z,102943.94
2023-04-04T09:54:28.706Z,102929.31
2023-04-04T09:56:56.965Z,102938.13
2023-04-04T09:59:24.277Z,102939.63
2023-04-04T10:01:53.442Z,102935.38
2023-04-04T10:04:20.232Z,102936.25
2023-04-04T10:06:47.122Z,102932.66
2023-04-04T10:09:15.450Z,102937.41
2023-04-04T10:11:42.115Z,102930.94
2023-04-04T10:14:09.345Z,102932.44
2023-04-04T10:16:39.119Z,102932.09
2023-04-04T10:19:09.023Z,102931.56
2023-04-04T10:21:35.756Z,102923.72
2023-04-04T10:24:08.862Z,102921.84
2023-04-04T10:26:35.512Z,102921.44
2023-04-04T10:29:02.019Z,102915.97
2023-04-04T10:31:31.253Z,102912.88
2023-04-04T10:34:13.697Z,102926.78
2023-04-04T10:36:45.891Z,102916.75
2023-04-04T10:39:27.616Z,102924.72
2023-04-04T10:41:56.556Z,102915.69
2023-04-04T10:44:29.918Z,102916.38
2023-04-04T10:46:59.666Z,102902.88
2023-04-04T10:49:29.918Z,102909.81
2023-04-04T10:51:57.525Z,102902.97
2023-04-04T10:54:26.281Z,102899.91
2023-04-04T10:56:55.107Z,102891.84
2023-04-04T10:59:25.256Z,102904.19
2023-04-04T11:02:02.330Z,102893.91
2023-04-04T11:04:33.875Z,102892.00
2023-04-04T11:07:06.913Z,102897.94
2023-04-04T11:10:16.290Z,102884.72
2023-04-04T11:12:45.780Z,102885.47
2023-04-04T11:15:21.358Z,102873.63
2023-04-04T11:17:57.625Z,102880.72
2023-04-04T11:20:33.264Z,102874.72
2023-04-04T11:23:08.770Z,102865.94
2023-04-04T11:25:39.807Z,102871.31
2023-04-04T11:28:08.856Z,102866.34
2023-04-04T11:30:48.003Z,102860.31
2023-04-04T11:33:27.511Z,102870.59
2023-04-04T11:35:58.961Z,102864.28
2023-04-04T11:38:26.883Z,102862.88
2023-04-04T11:40:54.798Z,102865.06
2023-04-04T11:43:21.558Z,102857.63
2023-04-04T11:45:48.744Z,102859.75
2023-04-04T11:48:17.652Z,102847.63
2023-04-04T11:50:49.910Z,102852.69
2023-04-04T11:53:17.574Z,102840.63
2023-04-04T11:55:47.921Z,102846.19
2023-04-04T11:58:16.846Z,102842.22
2023-04-04T12:00:44.094Z,102838.25
2023-04-04T12:03:12.564Z,102833.06
2023-04-04T12:05:41.147Z,102830.03
2023-04-04T12:08:10.111Z,102835.16
2023-04-04T12:10:39.049Z,102828.97
2023-04-04T12:13:07.302Z,102825.19
2023-04-04T12:15:36.080Z,102824.22
2023-04-04T12:18:09.146Z,102823.25
2023-04-04T12:20:39.596Z,102822.78
2023-04-04T12:23:06.156Z,102808.78
2023-04-04T12:25:34.181Z,102794.09
2023-04-04T12:28:03.879Z,102807.88
2023-04-04T12:30:30.695Z,102796.78
2023-04-04T12:32:57.624Z,102801.03
2023-04-04T12:35:24.697Z,102790.31
2023-04-04T12:37:59.406Z,102796.69
2023-04-04T12:40:29.923Z,102796.09
2023-04-04T12:42:57.314Z,102794.25
2023-04-04T12:45:26.649Z,102791.44
2023-04-04T12:47:54.865Z,102789.34
2023-04-04T12:50:27.368Z,102783.69
2023-04-04T12:52:55.536Z,102783.56
2023-04-04T12:55:31.440Z,102776.84
2023-04-04T12:58:00.842Z,102773.91
2023-04-04T13:00:27.403Z,102765.50
2023-04-04T13:02:55.384Z,102767.00
2023-04-04T13:05:25.650Z,102763.88
2023-04-04T13:08:05.698Z,102751.66
2023-04-04T13:11:03.682Z,102749.19
2023-04-04T13:13:38.681Z,102745.75
2023-04-04T13:16:07.826Z,102748.91
2023-04-04T13:18:43.486Z,102736.50
2023-04-04T13:21:11.968Z,102737.59
2023-04-04T13:23:41.381Z,102731.13
2023-04-04T13:26:09.699Z,102730.94
2023-04-04T13:28:36.603Z,102724.41
2023-04-04T13:31:08.111Z,102714.75
2023-04-04T13:33:35.101Z,102716.00
2023-04-04T13:36:01.677Z,102721.50
2023-04-04T13:38:29.676Z,102707.13
2023-04-04T13:40:59.852Z,102715.59
2023-04-04T13:43:27.194Z,102711.78
2023-04-04T13:45:55.373Z,102705.03
2023-04-04T13:48:22.209Z,102701.22
2023-04-04T13:50:51.546Z,102694.06
2023-04-04T13:53:18.726Z,102698.50
2023-04-04T13:56:01.407Z,102687.50
2023-04-04T13:58:32.875Z,102681.34
2023-04-04T14:01:04.124Z,102687.91
2023-04-04T14:03:31.351Z,102667.81
2023-04-04T14:06:00.291Z,102679.22
2023-04-04T14:08:30.622Z,102674.09
2023-04-04T14:10:57.455Z,102667.94
2023-04-04T14:13:23.964Z,102674.06
2023-04-04T14:15:50.849Z,102665.78
2023-04-04T14:18:17.508Z,102665.09
2023-04-04T14:20:44.283Z,102653.25
2023-04-04T14:23:11.011Z,102663.84
2023-04-04T14:25:37.584Z,102650.72
2023-04-04T14:28:04.143Z,102656.56
2023-04-04T14:30:30.784Z,102653.56
2023-04-04T14:32:57.365Z,102653.59
2023-04-04T14:35:23.947Z,102650.38
2023-04-04T14:37:50.521Z,102647.00
2023-04-04T14:40:17.393Z,102657.78
2023-04-04T14:42:43.870Z,102652.69
2023-04-04T14:45:12.212Z,102641.81
2023-04-04T14:47:38.790Z,102637.31
2023-04-04T14:50:06.080Z,102632.00
2023-04-04T14:52:33.698Z,102631.75
2023-04-04T14:55:00.915Z,102630.09
2023-04-04T14:57:28.703Z,102628.31
2023-04-04T14:59:55.399Z,102621.06
2023-04-04T15:02:22.139Z,102626.91
2023-04-04T15:04:48.817Z,102619.75
2023-04-04T15:07:15.747Z,102611.19
2023-04-04T15:09:42.321Z,102617.91
2023-04-04T15:12:08.925Z,102616.22
2023-04-04T15:14:36.576Z,102609.41
2023-04-04T15:17:03.092Z,102604.34
2023-04-04T15:19:29.636Z,102612.63
2023-04-04T15:21:57.104Z,102601.63
2023-04-04T15:24:23.689Z,102600.66
2023-04-04T15:26:50.207Z,102612.44
2023-04-04T15:29:16.787Z,102596.75
2023-04-04T15:31:43.366Z,102606.28
2023-04-04T15:34:09.890Z,102600.19
2023-04-04T15:36:36.430Z,102601.88
2023-04-04T15:39:03.428Z,102599.31
2023-04-04T15:41:30.061Z,102597.97
2023-04-04T15:43:56.658Z,102588.16
2023-04-04T15:46:23.280Z,102590.91
2023-04-04T15:48:52.013Z,102592.81
2023-04-04T15:51:18.753Z,102583.13
2023-04-04T15:53:45.374Z,102586.00
2023-04-04T15:56:13.450Z,102585.41
2023-04-04T15:58:39.959Z,102578.25
2023-04-04T16:01:07.345Z,102577.09
2023-04-04T16:03:34.103Z,102567.44
2023-04-04T16:06:00.680Z,102569.88
2023-04-04T16:08:27.230Z,102568.19
2023-04-04T16:10:53.846Z,102567.41
2023-04-04T16:13:20.397Z,102564.50
2023-04-04T16:15:46.933Z,102554.28
2023-04-04T16:18:13.521Z,102552.56
2023-04-04T16:20:40.404Z,102551.13
2023-04-04T16:23:07.100Z,102547.59
2023-04-04T16:25:33.681Z,102552.19
2023-04-04T16:28:00.414Z,102557.53
2023-04-04T16:30:28.395Z,102556.78
2023-04-04T16:32:55.041Z,102547.66
2023-04-04T16:35:21.581Z,102557.44
2023-04-04T16:37:48.191Z,102549.00
2023-04-04T16:40:15.576Z,102545.03
2023-04-04T16:42:42.195Z,102546.53
2023-04-04T16:45:09.457Z,102556.94
2023-04-04T16:47:36.706Z,102532.06
2023-04-04T16:50:07.096Z,102541.13
2023-04-04T16:52:33.635Z,102545.41
2023-04-04T16:55:00.401Z,102546.47
2023-04-04T16:57:27.130Z,102537.38
2023-04-04T16:59:53.729Z,102538.69
2023-04-04T17:02:20.288Z,102537.59
2023-04-04T17:04:46.900Z,102535.75
2023-04-04T17:07:13.419Z,102534.44
2023-04-04T17:09:39.972Z,102528.16
2023-04-04T17:12:06.534Z,102523.50
2023-04-04T17:14:33.423Z,102524.81
2023-04-04T17:17:00.437Z,102526.88
2023-04-04T17:19:29.838Z,102529.84
2023-04-04T17:21:56.921Z,102523.50
2023-04-04T17:24:25.411Z,102525.22
2023-04-04T17:26:52.325Z,102518.91
2023-04-04T17:29:20.610Z,102522.75
2023-04-04T17:31:48.848Z,102522.31
2023-04-04T17:34:16.138Z,102523.59
2023-04-04T17:36:43.701Z,102516.84
2023-04-04T17:39:10.257Z,102522.13
2023-04-04T17:41:37.937Z,102523.00
2023-04-04T17:44:04.522Z,102519.00
2023-04-04T17:46:31.080Z,102523.25
2023-04-04T17:48:57.638Z,102527.91
2023-04-04T17:51:24.318Z,102528.78
2023-04-04T17:53:51.299Z,102526.25
2023-04-04T17:56:17.944Z,102529.47
2023-04-04T17:58:44.516Z,102533.47
2023-04-04T18:01:11.517Z,102528.84
2023-04-04T18:03:38.487Z,102528.06
2023-04-04T18:06:05.796Z,102529.91
2023-04-04T18:08:32.316Z,102530.16
2023-04-04T18:10:58.883Z,102520.47
2023-04-04T18:13:25.411Z,102522.41
2023-04-04T18:15:53.175Z,102521.31
2023-04-04T18:18:21.221Z,102521.75
2023-04-04T18:20:48.215Z,102514.38
2023-04-04T18:23:16.650Z,102515.03
2023-04-04T18:25:43.347Z,102513.16
2023-04-04T18:28:09.864Z,102520.34
2023-04-04T18:30:37.486Z,102520.59
2023-04-04T18:33:04.588Z,102516.19
2023-04-04T18:35:31.340Z,102511.31
2023-04-04T18:37:57.930Z,102521.22
2023-04-04T18:40:24.429Z,102524.41
2023-04-04T18:42:52.144Z,102516.22
2023-04-04T18:45:20.909Z,102521.91
2023-04-04T18:47:49.979Z,102524.44
2023-04-04T18:50:16.938Z,102530.97
2023-04-04T18:52:43.486Z,102528.06
2023-04-04T18:55:10.675Z,102544.06
2023-04-04T18:57:37.660Z,102538.16
2023-04-04T19:00:06.690Z,102538.16
2023-04-04T19:02:34.175Z,102545.34
2023-04-04T19:05:02.872Z,102542.22
2023-04-04T19:07:31.409Z,102535.03
2023-04-04T19:09:59.305Z,102542.44
2023-04-04T19:12:25.919Z,102534.00
2023-04-04T19:14:52.471Z,102545.78
2023-04-04T19:17:19.055Z,102540.94
2023-04-04T19:19:45.522Z,102545.16
2023-04-04T19:22:12.177Z,102544.72
2023-04-04T19:24:42.183Z,102542.59
2023-04-04T19:27:08.787Z,102544.28
2023-04-04T19:29:36.497Z,102544.72
2023-04-04T19:32:14.277Z,102553.34
2023-04-04T19:34:42.854Z,102558.19
2023-04-04T19:37:12.814Z,102556.91
2023-04-04T19:39:41.629Z,102563.66
2023-04-04T19:42:08.877Z,102561.97
2023-04-04T19:44:42.907Z,102556.91
2023-04-04T19:47:19.273Z,102557.75
2023-04-04T19:49:45.825Z,102552.06
2023-04-04T19:52:13.935Z,102560.03
2023-04-04T19:54:42.893Z,102554.78
2023-04-04T19:57:20.003Z,102551.81
2023-04-04T20:00:09.555Z,102549.53
2023-04-04T20:02:53.327Z,102549.31
2023-04-04T20:05:46.221Z,102543.41
2023-04-04T20:08:14.277Z,102549.94
2023-04-04T20:10:42.221Z,102548.66
2023-04-04T20:13:09.511Z,102541.91
2023-04-04T20:15:44.907Z,102546.94
2023-04-04T20:18:20.510Z,102549.66
2023-04-04T20:21:04.672Z,102546.72
2023-04-04T20:23:32.923Z,102543.31
2023-04-04T20:26:05.828Z,102538.25
2023-04-04T20:28:32.753Z,102535.72
2023-04-04T20:31:12.166Z,102540.97
2023-04-04T20:33:40.535Z,102539.28
2023-04-04T20:36:08.677Z,102539.91
2023-04-04T20:38:36.850Z,102538.19
2023-04-04T20:41:10.641Z,102539.47
2023-04-04T20:43:38.292Z,102531.66
2023-04-04T20:46:04.975Z,102533.31
2023-04-04T20:48:39.756Z,102536.47
2023-04-04T20:51:23.956Z,102535.00
2023-04-04T20:53:51.886Z,102535.19
2023-04-04T20:56:44.844Z,102532.69
2023-04-04T20:59:36.296Z,102531.66
2023-04-04T21:02:16.576Z,102534.34
2023-04-04T21:04:45.609Z,102533.03
2023-04-04T21:07:41.548Z,102539.78
2023-04-04T21:10:29.285Z,102543.13
2023-04-04T21:13:03.331Z,102551.47
2023-04-04T21:15:33.636Z,102530.88
2023-04-04T21:18:04.836Z,102524.13
2023-04-04T21:21:10.281Z,102534.69
2023-04-04T21:23:58.597Z,102541.81
2023-04-04T21:26:33.995Z,102542.78
2023-04-04T21:29:03.804Z,102539.09
2023-04-04T21:31:38.596Z,102538.28
2023-04-04T21:34:14.050Z,102537.81
2023-04-04T21:36:41.036Z,102533.16
2023-04-04T21:39:13.936Z,102533.56
2023-04-04T21:41:41.326Z,102531.88
2023-04-04T21:44:10.386Z,102532.28
2023-04-04T21:46:39.534Z,102533.72
2023-04-04T21:49:07.132Z,102523.81
2023-04-04T21:51:33.906Z,102522.53
2023-04-04T21:54:01.165Z,102523.34
2023-04-04T21:56:31.325Z,102520.16
2023-04-04T21:59:02.687Z,102532.13
2023-04-04T22:01:30.383Z,102517.78
2023-04-04T22:03:58.030Z,102525.13
2023-04-04T22:06:26.148Z,102514.81
2023-04-04T22:08:56.456Z,102516.88
2023-04-04T22:11:26.007Z,102506.53
2023-04-04T22:14:03.084Z,102502.72
2023-04-04T22:16:30.991Z,102502.00
2023-04-04T22:18:58.886Z,102501.56
2023-04-04T22:21:28.150Z,102496.50
2023-04-04T22:24:00.960Z,102495.56
2023-04-04T22:26:33.852Z,102492.22
2023-04-04T22:29:02.622Z,102487.56
2023-04-04T22:31:29.263Z,102481.59
2023-04-04T22:33:56.175Z,102479.50
2023-04-04T22:36:24.351Z,102487.41
2023-04-04T22:38:56.532Z,102488.00
2023-04-04T22:41:28.130Z,102486.06
2023-04-04T22:43:55.342Z,102488.97
2023-04-04T22:46:22.085Z,102475.25
2023-04-04T22:48:48.834Z,102480.44
2023-04-04T22:51:16.287Z,102479.41
2023-04-04T22:53:44.040Z,102478.28
2023-04-04T22:56:11.079Z,102476.13
2023-04-04T22:58:37.760Z,102478.84
2023-04-04T23:01:04.848Z,102480.50
2023-04-04T23:03:31.798Z,102474.38
2023-04-04T23:05:58.298Z,102458.97
2023-04-04T23:08:24.879Z,102461.06
2023-04-04T23:10:51.367Z,102476.56
2023-04-04T23:13:17.892Z,102481.38
2023-04-04T23:15:45.131Z,102473.97
2023-04-04T23:18:12.500Z,102481.50
2023-04-04T23:20:39.609Z,102477.47
2023-04-04T23:23:06.330Z,102477.81
2023-04-04T23:25:32.881Z,102475.69
2023-04-04T23:27:59.360Z,102466.81
2023-04-04T23:30:25.986Z,102465.50
2023-04-04T23:32:52.704Z,102462.97
2023-04-04T23:35:19.326Z,102461.66
2023-04-04T23:37:45.954Z,102449.81
2023-04-04T23:40:12.993Z,102452.91
2023-04-04T23:42:39.493Z,102454.81
2023-04-04T23:45:06.670Z,102446.16
2023-04-04T23:47:33.421Z,102447.56
2023-04-04T23:50:00.165Z,102454.91
2023-04-04T23:52:27.062Z,102447.31
2023-04-04T23:54:53.542Z,102446.66
2023-04-04T23:57:20.079Z,102443.28
2023-04-04T23:59:46.691Z,102453.50
